WXM80 ListenWXM80 Stop

You find our weather info also at:

UK Metoffice

WeatherCloud

Weather Underground

Northeastern Weather Network

AWEKAS

Citizen Weather Observer Program (CWOP)

HAMweather, WeatherForYou, PWS Weather


Weather Underground History page Text

Daily Summary for February 21, 2018 Units:  Both    English   Metric
« Previous Day
Next Day »
Daily Weekly Monthly Yearly Custom
  High: Low: Average:
Temperature: 76.0 °F /  24.4 °C 51.5 °F /  10.8 °C 61.9 °F /  16.6 °C
Dew Point: 63.6 °F /  17.6 °C 43.4 °F /  6.3 °C 56.7 °F /  13.7 °C
Humidity: 98 % 64 % 84 %
Wind Speed: 11.5 mph /  18.5 km/h - 4.7 mph /  7.6 km/h
Wind Gust: 18.4 mph /  29.6 km/h - -
Wind:- - SSW
Pressure: 30.15 in /  1020.9 hPa 29.93 in /  1013.4 hPa -
Precipitation: 0.03 in /  0.76 mm    
Historical Graphs
 
 
Tabular Data for February 21, 2018
Time Temperature Dew Point Pressure Wind Wind Speed Wind Gust Humidity Rainfall Rate (Hourly)
00:02 54.3 °F /  12.4 °C 52.3 °F /  11.3 °C 30.08 in /  1018.5 hPa WSW 0.9 mph /  1.4 km/h 3.5 mph /  5.6 km/h 93 % 0.00 in /  0 mm
00:07 54.2 °F /  12.3 °C 52.2 °F /  11.2 °C 30.08 in /  1018.5 hPa South 3.4 mph /  5.5 km/h 6.9 mph /  11.1 km/h 93 % 0.00 in /  0 mm
00:12 54.0 °F /  12.2 °C 52.0 °F /  11.1 °C 30.08 in /  1018.5 hPa SW 3.5 mph /  5.6 km/h 8.1 mph /  13 km/h 93 % 0.00 in /  0 mm
00:17 53.9 °F /  12.2 °C 51.9 °F /  11.1 °C 30.08 in /  1018.5 hPa South 4.1 mph /  6.6 km/h 8.1 mph /  13 km/h 93 % 0.00 in /  0 mm
00:22 53.8 °F /  12.1 °C 52.1 °F /  11.2 °C 30.08 in /  1018.5 hPa SW 4.5 mph /  7.2 km/h 8.0 mph /  12.9 km/h 94 % 0.00 in /  0 mm
00:27 53.7 °F /  12.1 °C 52.0 °F /  11.1 °C 30.08 in /  1018.5 hPa SW 2.2 mph /  3.5 km/h 3.5 mph /  5.6 km/h 94 % 0.00 in /  0 mm
00:32 53.6 °F /  12 °C 51.9 °F /  11.1 °C 30.08 in /  1018.5 hPa SW 2.3 mph /  3.7 km/h 3.5 mph /  5.6 km/h 94 % 0.00 in /  0 mm
00:37 53.6 °F /  12 °C 51.9 °F /  11.1 °C 30.07 in /  1018.2 hPa West 2.6 mph /  4.2 km/h 5.8 mph /  9.3 km/h 94 % 0.00 in /  0 mm
00:42 53.5 °F /  11.9 °C 51.8 °F /  11 °C 30.07 in /  1018.2 hPa WSW 0.6 mph /  1 km/h 3.5 mph /  5.6 km/h 94 % 0.00 in /  0 mm
00:48 53.5 °F /  11.9 °C 51.8 °F /  11 °C 30.07 in /  1018.2 hPa SW 0.3 mph /  0.5 km/h 3.5 mph /  5.6 km/h 94 % 0.00 in /  0 mm
00:53 53.5 °F /  11.9 °C 51.8 °F /  11 °C 30.07 in /  1018.2 hPa West 2.5 mph /  4 km/h 4.6 mph /  7.4 km/h 94 % 0.00 in /  0 mm
00:58 53.5 °F /  11.9 °C 51.8 °F /  11 °C 30.07 in /  1018.2 hPa Calm   2.3 mph /  3.7 km/h 94 % 0.00 in /  0 mm
01:03 53.5 °F /  11.9 °C 52.1 °F /  11.2 °C 30.07 in /  1018.2 hPa SSW 1.8 mph /  2.9 km/h 3.5 mph /  5.6 km/h 95 % 0.00 in /  0 mm
01:08 53.6 °F /  12 °C 52.2 °F /  11.2 °C 30.06 in /  1017.8 hPa SW 2.0 mph /  3.2 km/h 4.6 mph /  7.4 km/h 95 % 0.00 in /  0 mm
01:13 53.6 °F /  12 °C 52.2 °F /  11.2 °C 30.06 in /  1017.8 hPa SSW 2.0 mph /  3.2 km/h 3.5 mph /  5.6 km/h 95 % 0.00 in /  0 mm
01:18 53.7 °F /  12.1 °C 52.3 °F /  11.3 °C 30.06 in /  1017.8 hPa Calm     95 % 0.00 in /  0 mm
01:23 53.8 °F /  12.1 °C 52.4 °F /  11.3 °C 30.06 in /  1017.8 hPa SW 0.3 mph /  0.5 km/h 2.3 mph /  3.7 km/h 95 % 0.00 in /  0 mm
01:28 53.8 °F /  12.1 °C 52.4 °F /  11.3 °C 30.06 in /  1017.8 hPa Calm     95 % 0.00 in /  0 mm
01:33 53.9 °F /  12.2 °C 52.5 °F /  11.4 °C 30.05 in /  1017.5 hPa Calm   3.0 mph /  4.8 km/h 95 % 0.00 in /  0 mm
01:38 54.1 °F /  12.3 °C 53.0 °F /  11.7 °C 30.05 in /  1017.5 hPa Calm     96 % 0.00 in /  0 mm
01:43 54.1 °F /  12.3 °C 53.0 °F /  11.7 °C 30.05 in /  1017.5 hPa SSW 2.1 mph /  3.4 km/h 3.5 mph /  5.6 km/h 96 % 0.00 in /  0 mm
01:48 54.3 °F /  12.4 °C 53.2 °F /  11.8 °C 30.05 in /  1017.5 hPa WNW 3.0 mph /  4.8 km/h 8.1 mph /  13 km/h 96 % 0.00 in /  0 mm
01:53 54.5 °F /  12.5 °C 53.4 °F /  11.9 °C 30.05 in /  1017.5 hPa South 1.9 mph /  3.1 km/h 5.8 mph /  9.3 km/h 96 % 0.00 in /  0 mm
01:58 54.7 °F /  12.6 °C 53.6 °F /  12 °C 30.04 in /  1017.2 hPa SW 1.3 mph /  2.1 km/h 5.0 mph /  8 km/h 96 % 0.00 in /  0 mm
02:03 54.9 °F /  12.7 °C 54.1 °F /  12.3 °C 30.05 in /  1017.5 hPa SSW 3.1 mph /  5 km/h 7.0 mph /  11.3 km/h 97 % 0.00 in /  0 mm
02:08 55.2 °F /  12.9 °C 54.4 °F /  12.4 °C 30.04 in /  1017.2 hPa South 3.0 mph /  4.8 km/h 9.2 mph /  14.8 km/h 97 % 0.00 in /  0 mm
02:13 55.4 °F /  13 °C 54.6 °F /  12.6 °C 30.04 in /  1017.2 hPa South 6.6 mph /  10.6 km/h 10.4 mph /  16.7 km/h 97 % 0.00 in /  0 mm
02:18 55.7 °F /  13.2 °C 54.9 °F /  12.7 °C 30.04 in /  1017.2 hPa SSW 2.3 mph /  3.7 km/h 5.0 mph /  8 km/h 97 % 0.00 in /  0 mm
02:24 55.9 °F /  13.3 °C 55.1 °F /  12.8 °C 30.03 in /  1016.8 hPa SSW 3.4 mph /  5.5 km/h 5.8 mph /  9.3 km/h 97 % 0.00 in /  0 mm
02:29 56.5 °F /  13.6 °C 55.7 °F /  13.2 °C 30.04 in /  1017.2 hPa SSW 7.4 mph /  11.9 km/h 13.8 mph /  22.2 km/h 97 % 0.00 in /  0 mm
02:34 57.0 °F /  13.9 °C 56.2 °F /  13.4 °C 30.04 in /  1017.2 hPa SSW 6.5 mph /  10.5 km/h 11.5 mph /  18.5 km/h 97 % 0.00 in /  0 mm
02:39 57.5 °F /  14.2 °C 56.7 °F /  13.7 °C 30.04 in /  1017.2 hPa SW 8.1 mph /  13 km/h 18.4 mph /  29.6 km/h 97 % 0.00 in /  0 mm
02:44 57.9 °F /  14.4 °C 57.3 °F /  14.1 °C 30.03 in /  1016.8 hPa SSW 5.7 mph /  9.2 km/h 10.0 mph /  16.1 km/h 98 % 0.00 in /  0 mm
02:49 58.1 °F /  14.5 °C 57.3 °F /  14.1 °C 30.03 in /  1016.8 hPa SSW 5.3 mph /  8.5 km/h 9.2 mph /  14.8 km/h 97 % 0.00 in /  0 mm
02:54 58.1 °F /  14.5 °C 57.3 °F /  14.1 °C 30.04 in /  1017.2 hPa SSW 8.1 mph /  13 km/h 12.7 mph /  20.4 km/h 97 % 0.00 in /  0 mm
02:59 58.1 °F /  14.5 °C 57.3 °F /  14.1 °C 30.04 in /  1017.2 hPa SSW 8.9 mph /  14.3 km/h 13.8 mph /  22.2 km/h 97 % 0.00 in /  0 mm
03:04 58.2 °F /  14.6 °C 57.4 °F /  14.1 °C 30.04 in /  1017.2 hPa WSW 6.2 mph /  10 km/h 12.7 mph /  20.4 km/h 97 % 0.00 in /  0 mm
03:09 58.1 °F /  14.5 °C 57.3 °F /  14.1 °C 30.03 in /  1016.8 hPa SSW 5.4 mph /  8.7 km/h 16.0 mph /  25.7 km/h 97 % 0.00 in /  0 mm
03:14 58.1 °F /  14.5 °C 57.3 °F /  14.1 °C 30.04 in /  1017.2 hPa SW 5.1 mph /  8.2 km/h 17.3 mph /  27.8 km/h 97 % 0.00 in /  0 mm
03:19 58.1 °F /  14.5 °C 57.3 °F /  14.1 °C 30.04 in /  1017.2 hPa SSW 5.7 mph /  9.2 km/h 11.5 mph /  18.5 km/h 97 % 0.00 in /  0 mm
03:24 58.0 °F /  14.4 °C 57.2 °F /  14 °C 30.04 in /  1017.2 hPa South 4.7 mph /  7.6 km/h 12.0 mph /  19.3 km/h 97 % 0.00 in /  0 mm
03:29 58.0 °F /  14.4 °C 57.2 °F /  14 °C 30.03 in /  1016.8 hPa SSW 6.1 mph /  9.8 km/h 11.5 mph /  18.5 km/h 97 % 0.00 in /  0 mm
03:34 57.9 °F /  14.4 °C 56.8 °F /  13.8 °C 30.03 in /  1016.8 hPa SW 4.0 mph /  6.4 km/h 8.1 mph /  13 km/h 96 % 0.00 in /  0 mm
03:39 57.8 °F /  14.3 °C 56.7 °F /  13.7 °C 30.03 in /  1016.8 hPa WSW 5.0 mph /  8 km/h 9.2 mph /  14.8 km/h 96 % 0.00 in /  0 mm
03:45 57.7 °F /  14.3 °C 56.6 °F /  13.7 °C 30.03 in /  1016.8 hPa SW 6.8 mph /  10.9 km/h 11.5 mph /  18.5 km/h 96 % 0.00 in /  0 mm
03:50 57.6 °F /  14.2 °C 56.5 °F /  13.6 °C 30.04 in /  1017.2 hPa WSW 5.5 mph /  8.9 km/h 11.5 mph /  18.5 km/h 96 % 0.00 in /  0 mm
03:55 57.5 °F /  14.2 °C 56.4 °F /  13.6 °C 30.04 in /  1017.2 hPa SW 5.2 mph /  8.4 km/h 8.1 mph /  13 km/h 96 % 0.00 in /  0 mm
04:00 57.3 °F /  14.1 °C 55.9 °F /  13.3 °C 30.04 in /  1017.2 hPa WSW 4.9 mph /  7.9 km/h 9.0 mph /  14.5 km/h 95 % 0.00 in /  0 mm
04:05 57.2 °F /  14 °C 55.8 °F /  13.2 °C 30.04 in /  1017.2 hPa SSW 5.0 mph /  8 km/h 9.2 mph /  14.8 km/h 95 % 0.00 in /  0 mm
04:10 57.0 °F /  13.9 °C 55.6 °F /  13.1 °C 30.05 in /  1017.5 hPa WSW 2.2 mph /  3.5 km/h 4.6 mph /  7.4 km/h 95 % 0.00 in /  0 mm
04:15 56.9 °F /  13.8 °C 55.5 °F /  13.1 °C 30.05 in /  1017.5 hPa SW 3.0 mph /  4.8 km/h 10.4 mph /  16.7 km/h 95 % 0.00 in /  0 mm
04:20 56.8 °F /  13.8 °C 55.4 °F /  13 °C 30.05 in /  1017.5 hPa SW 5.0 mph /  8 km/h 9.2 mph /  14.8 km/h 95 % 0.00 in /  0 mm
04:25 56.7 °F /  13.7 °C 55.3 °F /  12.9 °C 30.05 in /  1017.5 hPa SW 4.0 mph /  6.4 km/h 7.0 mph /  11.3 km/h 95 % 0.00 in /  0 mm
04:30 56.6 °F /  13.7 °C 55.2 °F /  12.9 °C 30.06 in /  1017.8 hPa SSW 3.9 mph /  6.3 km/h 5.8 mph /  9.3 km/h 95 % 0.00 in /  0 mm
04:35 56.6 °F /  13.7 °C 55.2 °F /  12.9 °C 30.06 in /  1017.8 hPa SSW 5.1 mph /  8.2 km/h 7.0 mph /  11.3 km/h 95 % 0.00 in /  0 mm
04:40 56.5 °F /  13.6 °C 55.1 °F /  12.8 °C 30.06 in /  1017.8 hPa South 1.5 mph /  2.4 km/h 5.0 mph /  8 km/h 95 % 0.00 in /  0 mm
04:45 56.5 °F /  13.6 °C 55.1 °F /  12.8 °C 30.06 in /  1017.8 hPa SW 1.8 mph /  2.9 km/h 4.6 mph /  7.4 km/h 95 % 0.00 in /  0 mm
04:51 56.4 °F /  13.6 °C 55.0 °F /  12.8 °C 30.05 in /  1017.5 hPa SW 3.0 mph /  4.8 km/h 6.0 mph /  9.7 km/h 95 % 0.00 in /  0 mm
04:56 56.4 °F /  13.6 °C 55.0 °F /  12.8 °C 30.05 in /  1017.5 hPa SSW 3.0 mph /  4.8 km/h 9.0 mph /  14.5 km/h 95 % 0.00 in /  0 mm
05:01 56.4 °F /  13.6 °C 55.0 °F /  12.8 °C 30.04 in /  1017.2 hPa SSW 0.3 mph /  0.5 km/h 1.2 mph /  1.9 km/h 95 % 0.00 in /  0 mm
05:06 56.3 °F /  13.5 °C 54.9 °F /  12.7 °C 30.04 in /  1017.2 hPa SSW 3.0 mph /  4.8 km/h 7.0 mph /  11.3 km/h 95 % 0.00 in /  0 mm
05:11 56.3 °F /  13.5 °C 54.9 °F /  12.7 °C 30.05 in /  1017.5 hPa South 2.2 mph /  3.5 km/h 6.9 mph /  11.1 km/h 95 % 0.00 in /  0 mm
05:16 56.3 °F /  13.5 °C 54.8 °F /  12.7 °C 30.04 in /  1017.2 hPa SSW 2.0 mph /  3.2 km/h 6.0 mph /  9.7 km/h 95 % 0.00 in /  0 mm
05:21 56.3 °F /  13.5 °C 54.9 °F /  12.7 °C 30.04 in /  1017.2 hPa SW 3.0 mph /  4.8 km/h 7.0 mph /  11.3 km/h 95 % 0.00 in /  0 mm
05:26 56.3 °F /  13.5 °C 54.9 °F /  12.7 °C 30.04 in /  1017.2 hPa SW 2.3 mph /  3.7 km/h 5.0 mph /  8 km/h 95 % 0.00 in /  0 mm
05:31 56.3 °F /  13.5 °C 54.9 °F /  12.7 °C 30.04 in /  1017.2 hPa SW 2.0 mph /  3.2 km/h 5.0 mph /  8 km/h 95 % 0.00 in /  0 mm
05:36 56.3 °F /  13.5 °C 54.9 °F /  12.7 °C 30.04 in /  1017.2 hPa SSW 1.0 mph /  1.6 km/h 3.5 mph /  5.6 km/h 95 % 0.00 in /  0 mm
05:41 56.2 °F /  13.4 °C 54.8 °F /  12.7 °C 30.04 in /  1017.2 hPa South 3.4 mph /  5.5 km/h 3.5 mph /  5.6 km/h 95 % 0.00 in /  0 mm
05:46 56.1 °F /  13.4 °C 54.7 °F /  12.6 °C 30.04 in /  1017.2 hPa South 3.0 mph /  4.8 km/h 6.0 mph /  9.7 km/h 95 % 0.00 in /  0 mm
05:51 55.9 °F /  13.3 °C 54.5 °F /  12.5 °C 30.04 in /  1017.2 hPa South 2.0 mph /  3.2 km/h 4.0 mph /  6.4 km/h 95 % 0.00 in /  0 mm
05:56 55.8 °F /  13.2 °C 54.3 °F /  12.4 °C 30.04 in /  1017.2 hPa SSW 5.0 mph /  8 km/h 9.0 mph /  14.5 km/h 95 % 0.00 in /  0 mm
06:01 55.6 °F /  13.1 °C 54.2 °F /  12.3 °C 30.04 in /  1017.2 hPa SSW 4.1 mph /  6.6 km/h 5.0 mph /  8 km/h 95 % 0.00 in /  0 mm
06:06 55.5 °F /  13.1 °C 53.8 °F /  12.1 °C 30.04 in /  1017.2 hPa SSW 2.0 mph /  3.2 km/h 7.0 mph /  11.3 km/h 94 % 0.00 in /  0 mm
06:11 55.5 °F /  13.1 °C 54.1 °F /  12.3 °C 30.03 in /  1016.8 hPa SSW 1.0 mph /  1.6 km/h 6.0 mph /  9.7 km/h 95 % 0.00 in /  0 mm
06:16 55.4 °F /  13 °C 54.0 °F /  12.2 °C 30.04 in /  1017.2 hPa SSW 3.0 mph /  4.8 km/h 7.0 mph /  11.3 km/h 95 % 0.00 in /  0 mm
06:21 55.4 °F /  13 °C 54.0 °F /  12.2 °C 30.04 in /  1017.2 hPa SSW 2.0 mph /  3.2 km/h 5.0 mph /  8 km/h 95 % 0.00 in /  0 mm
06:26 55.4 °F /  13 °C 54.0 °F /  12.2 °C 30.04 in /  1017.2 hPa SSW 3.0 mph /  4.8 km/h 7.0 mph /  11.3 km/h 95 % 0.00 in /  0 mm
06:31 55.4 °F /  13 °C 54.0 °F /  12.2 °C 30.03 in /  1016.8 hPa SSW 2.0 mph /  3.2 km/h 8.0 mph /  12.9 km/h 95 % 0.00 in /  0 mm
06:36 55.4 °F /  13 °C 54.0 °F /  12.2 °C 30.04 in /  1017.2 hPa SW 1.0 mph /  1.6 km/h 9.0 mph /  14.5 km/h 95 % 0.00 in /  0 mm
06:41 55.4 °F /  13 °C 54.0 °F /  12.2 °C 30.03 in /  1016.8 hPa SW 2.0 mph /  3.2 km/h 6.0 mph /  9.7 km/h 95 % 0.00 in /  0 mm
06:46 55.3 °F /  12.9 °C 53.9 °F /  12.2 °C 30.04 in /  1017.2 hPa SW 2.0 mph /  3.2 km/h 7.0 mph /  11.3 km/h 95 % 0.00 in /  0 mm
06:51 55.3 °F /  12.9 °C 53.9 °F /  12.2 °C 30.04 in /  1017.2 hPa SSW 3.0 mph /  4.8 km/h 6.0 mph /  9.7 km/h 95 % 0.00 in /  0 mm
06:56 55.1 °F /  12.8 °C 53.7 °F /  12.1 °C 30.05 in /  1017.5 hPa SSW 3.0 mph /  4.8 km/h 6.0 mph /  9.7 km/h 95 % 0.00 in /  0 mm
07:01 54.8 °F /  12.7 °C 53.1 °F /  11.7 °C 30.05 in /  1017.5 hPa South 4.9 mph /  7.9 km/h 6.0 mph /  9.7 km/h 94 % 0.00 in /  0 mm
07:06 54.5 °F /  12.5 °C 52.8 °F /  11.6 °C 30.04 in /  1017.2 hPa SSW 3.0 mph /  4.8 km/h 8.0 mph /  12.9 km/h 94 % 0.00 in /  0 mm
07:11 54.3 °F /  12.4 °C 52.6 °F /  11.4 °C 30.04 in /  1017.2 hPa South 3.5 mph /  5.6 km/h 5.0 mph /  8 km/h 94 % 0.00 in /  0 mm
07:16 54.1 °F /  12.3 °C 52.4 °F /  11.3 °C 30.05 in /  1017.5 hPa SSW 2.0 mph /  3.2 km/h 7.0 mph /  11.3 km/h 94 % 0.00 in /  0 mm
07:21 54.0 °F /  12.2 °C 52.3 °F /  11.3 °C 30.05 in /  1017.5 hPa SSW 2.0 mph /  3.2 km/h 5.8 mph /  9.3 km/h 94 % 0.00 in /  0 mm
07:26 53.9 °F /  12.2 °C 52.2 °F /  11.2 °C 30.05 in /  1017.5 hPa SSW 3.0 mph /  4.8 km/h 7.0 mph /  11.3 km/h 94 % 0.00 in /  0 mm
07:31 53.8 °F /  12.1 °C 52.4 °F /  11.3 °C 30.05 in /  1017.5 hPa SSW 5.0 mph /  8 km/h 8.0 mph /  12.9 km/h 95 % 0.00 in /  0 mm
07:36 53.7 °F /  12.1 °C 52.3 °F /  11.3 °C 30.05 in /  1017.5 hPa SSW 3.0 mph /  4.8 km/h 9.0 mph /  14.5 km/h 95 % 0.00 in /  0 mm
07:41 53.7 °F /  12.1 °C 52.3 °F /  11.3 °C 30.05 in /  1017.5 hPa SSW 2.0 mph /  3.2 km/h 5.0 mph /  8 km/h 95 % 0.00 in /  0 mm
07:46 53.7 °F /  12.1 °C 52.3 °F /  11.3 °C 30.05 in /  1017.5 hPa SSW 2.0 mph /  3.2 km/h 8.0 mph /  12.9 km/h 95 % 0.00 in /  0 mm
07:51 53.7 °F /  12.1 °C 52.3 °F /  11.3 °C 30.05 in /  1017.5 hPa SSW 3.0 mph /  4.8 km/h 7.0 mph /  11.3 km/h 95 % 0.00 in /  0 mm
07:56 54.0 °F /  12.2 °C 52.9 °F /  11.6 °C 30.05 in /  1017.5 hPa SSW 5.0 mph /  8 km/h 8.0 mph /  12.9 km/h 96 % 0.00 in /  0 mm
08:01 54.2 °F /  12.3 °C 53.1 °F /  11.7 °C 30.05 in /  1017.5 hPa South 4.5 mph /  7.2 km/h 6.9 mph /  11.1 km/h 96 % 0.00 in /  0 mm
08:06 54.4 °F /  12.4 °C 53.3 °F /  11.8 °C 30.05 in /  1017.5 hPa SSW 5.6 mph /  9 km/h 11.5 mph /  18.5 km/h 96 % 0.00 in /  0 mm
08:10 54.4 °F /  12.4 °C 53.3 °F /  11.8 °C 30.04 in /  1017.2 hPa SSW 3.0 mph /  4.8 km/h 10.4 mph /  16.7 km/h 96 % 0.00 in /  0 mm
08:15 54.7 °F /  12.6 °C 53.6 °F /  12 °C 30.04 in /  1017.2 hPa SSW 4.5 mph /  7.2 km/h 9.2 mph /  14.8 km/h 96 % 0.00 in /  0 mm
08:20 55.0 °F /  12.8 °C 53.9 °F /  12.2 °C 30.04 in /  1017.2 hPa SSW 2.8 mph /  4.5 km/h 5.8 mph /  9.3 km/h 96 % 0.00 in /  0 mm
08:25 55.3 °F /  12.9 °C 54.2 °F /  12.3 °C 30.04 in /  1017.2 hPa SW 1.5 mph /  2.4 km/h 4.6 mph /  7.4 km/h 96 % 0.00 in /  0 mm
08:30 55.4 °F /  13 °C 54.3 °F /  12.4 °C 30.04 in /  1017.2 hPa SW 3.2 mph /  5.1 km/h 4.6 mph /  7.4 km/h 96 % 0.00 in /  0 mm
08:35 55.5 °F /  13.1 °C 54.7 °F /  12.6 °C 30.04 in /  1017.2 hPa SSW 1.9 mph /  3.1 km/h 3.5 mph /  5.6 km/h 97 % 0.00 in /  0 mm
08:40 55.7 °F /  13.2 °C 54.9 °F /  12.7 °C 30.04 in /  1017.2 hPa South 2.4 mph /  3.9 km/h 4.6 mph /  7.4 km/h 97 % 0.00 in /  0 mm
08:45 55.8 °F /  13.2 °C 54.7 °F /  12.6 °C 30.03 in /  1016.8 hPa SSW 1.7 mph /  2.7 km/h 3.5 mph /  5.6 km/h 96 % 0.00 in /  0 mm
08:50 56.0 °F /  13.3 °C 54.9 °F /  12.7 °C 30.04 in /  1017.2 hPa South 3.4 mph /  5.5 km/h 8.0 mph /  12.9 km/h 96 % 0.00 in /  0 mm
08:55 56.2 °F /  13.4 °C 55.4 °F /  13 °C 30.03 in /  1016.8 hPa SSW 5.0 mph /  8 km/h 8.0 mph /  12.9 km/h 97 % 0.00 in /  0 mm
09:00 56.6 °F /  13.7 °C 55.8 °F /  13.2 °C 30.04 in /  1017.2 hPa SW 2.7 mph /  4.3 km/h 6.9 mph /  11.1 km/h 97 % 0.00 in /  0 mm
09:05 56.9 °F /  13.8 °C 56.1 °F /  13.4 °C 30.03 in /  1016.8 hPa SSW 2.0 mph /  3.2 km/h 5.0 mph /  8 km/h 97 % 0.00 in /  0 mm
09:10 57.2 °F /  14 °C 56.4 °F /  13.6 °C 30.03 in /  1016.8 hPa SSW 3.8 mph /  6.1 km/h 10.4 mph /  16.7 km/h 97 % 0.00 in /  0 mm
09:16 57.5 °F /  14.2 °C 56.7 °F /  13.7 °C 30.03 in /  1016.8 hPa SSW 6.0 mph /  9.7 km/h 12.0 mph /  19.3 km/h 97 % 0.00 in /  0 mm
09:21 57.8 °F /  14.3 °C 56.7 °F /  13.7 °C 30.03 in /  1016.8 hPa SSW 6.0 mph /  9.7 km/h 10.0 mph /  16.1 km/h 96 % 0.00 in /  0 mm
09:26 58.2 °F /  14.6 °C 57.0 °F /  13.9 °C 30.03 in /  1016.8 hPa SSW 2.0 mph /  3.2 km/h 8.0 mph /  12.9 km/h 96 % 0.00 in /  0 mm
09:31 58.5 °F /  14.7 °C 57.4 °F /  14.1 °C 30.03 in /  1016.8 hPa SSW 5.3 mph /  8.5 km/h 10.4 mph /  16.7 km/h 96 % 0.00 in /  0 mm
09:36 58.8 °F /  14.9 °C 57.6 °F /  14.2 °C 30.03 in /  1016.8 hPa SW 5.0 mph /  8 km/h 10.0 mph /  16.1 km/h 96 % 0.00 in /  0 mm
09:41 59.1 °F /  15.1 °C 58.0 °F /  14.4 °C 30.04 in /  1017.2 hPa SW 6.0 mph /  9.7 km/h 9.0 mph /  14.5 km/h 96 % 0.00 in /  0 mm
09:46 59.4 °F /  15.2 °C 58.0 °F /  14.4 °C 30.04 in /  1017.2 hPa SW 2.0 mph /  3.2 km/h 7.0 mph /  11.3 km/h 95 % 0.00 in /  0 mm
09:51 59.6 °F /  15.3 °C 58.2 °F /  14.6 °C 30.04 in /  1017.2 hPa SSW 3.0 mph /  4.8 km/h 7.0 mph /  11.3 km/h 95 % 0.00 in /  0 mm
09:56 59.8 °F /  15.4 °C 58.1 °F /  14.5 °C 30.04 in /  1017.2 hPa SSW 6.0 mph /  9.7 km/h 9.0 mph /  14.5 km/h 94 % 0.00 in /  0 mm
10:01 60.0 °F /  15.6 °C 58.3 °F /  14.6 °C 30.04 in /  1017.2 hPa SSW 3.3 mph /  5.3 km/h 6.9 mph /  11.1 km/h 94 % 0.00 in /  0 mm
10:06 60.2 °F /  15.7 °C 58.5 °F /  14.7 °C 30.03 in /  1016.8 hPa SSW 6.0 mph /  9.7 km/h 12.0 mph /  19.3 km/h 94 % 0.00 in /  0 mm
10:11 60.5 °F /  15.8 °C 58.8 °F /  14.9 °C 30.03 in /  1016.8 hPa SW 7.1 mph /  11.4 km/h 9.2 mph /  14.8 km/h 94 % 0.00 in /  0 mm
10:16 60.9 °F /  16.1 °C 59.2 °F /  15.1 °C 30.03 in /  1016.8 hPa SSW 3.0 mph /  4.8 km/h 11.0 mph /  17.7 km/h 94 % 0.00 in /  0 mm
10:21 61.4 °F /  16.3 °C 59.3 °F /  15.2 °C 30.04 in /  1017.2 hPa SSW 3.0 mph /  4.8 km/h 15.0 mph /  24.1 km/h 93 % 0.00 in /  0 mm
10:26 62.0 °F /  16.7 °C 59.9 °F /  15.5 °C 30.03 in /  1016.8 hPa SSW 7.0 mph /  11.3 km/h 14.0 mph /  22.5 km/h 93 % 0.00 in /  0 mm
10:31 62.5 °F /  16.9 °C 60.1 °F /  15.6 °C 30.03 in /  1016.8 hPa SW 7.0 mph /  11.3 km/h 13.0 mph /  20.9 km/h 92 % 0.00 in /  0 mm
10:36 63.1 °F /  17.3 °C 60.4 °F /  15.8 °C 30.02 in /  1016.5 hPa SW 6.0 mph /  9.7 km/h 13.0 mph /  20.9 km/h 91 % 0.00 in /  0 mm
10:41 63.6 °F /  17.6 °C 60.6 °F /  15.9 °C 30.03 in /  1016.8 hPa SW 7.0 mph /  11.3 km/h 16.0 mph /  25.7 km/h 90 % 0.00 in /  0 mm
10:46 64.2 °F /  17.9 °C 60.9 °F /  16.1 °C 30.02 in /  1016.5 hPa SW 7.0 mph /  11.3 km/h 12.0 mph /  19.3 km/h 89 % 0.00 in /  0 mm
10:51 64.7 °F /  18.2 °C 60.7 °F /  15.9 °C 30.02 in /  1016.5 hPa SW 6.0 mph /  9.7 km/h 13.0 mph /  20.9 km/h 87 % 0.00 in /  0 mm
10:56 65.0 °F /  18.3 °C 60.7 °F /  15.9 °C 30.01 in /  1016.1 hPa SW 8.0 mph /  12.9 km/h 16.0 mph /  25.7 km/h 86 % 0.00 in /  0 mm
11:01 65.3 °F /  18.5 °C 61.0 °F /  16.1 °C 30.01 in /  1016.1 hPa SSW 7.1 mph /  11.4 km/h 10.4 mph /  16.7 km/h 86 % 0.00 in /  0 mm
11:06 65.6 °F /  18.7 °C 61.0 °F /  16.1 °C 30.01 in /  1016.1 hPa SSW 10.8 mph /  17.4 km/h 18.4 mph /  29.6 km/h 85 % 0.00 in /  0 mm
11:11 65.8 °F /  18.8 °C 60.8 °F /  16 °C 30.01 in /  1016.1 hPa WSW 8.2 mph /  13.2 km/h 16.0 mph /  25.7 km/h 84 % 0.00 in /  0 mm
11:16 66.1 °F /  18.9 °C 61.1 °F /  16.2 °C 30.01 in /  1016.1 hPa SW 3.9 mph /  6.3 km/h 11.5 mph /  18.5 km/h 84 % 0.00 in /  0 mm
11:21 66.5 °F /  19.2 °C 61.2 °F /  16.2 °C 30.00 in /  1015.8 hPa SW 5.7 mph /  9.2 km/h 9.2 mph /  14.8 km/h 83 % 0.00 in /  0 mm
11:26 67.0 °F /  19.4 °C 61.7 °F /  16.5 °C 30.00 in /  1015.8 hPa South 6.9 mph /  11.1 km/h 11.5 mph /  18.5 km/h 83 % 0.00 in /  0 mm
11:31 67.6 °F /  19.8 °C 61.9 °F /  16.6 °C 30.00 in /  1015.8 hPa SSW 6.8 mph /  10.9 km/h 11.5 mph /  18.5 km/h 82 % 0.00 in /  0 mm
11:36 68.2 °F /  20.1 °C 62.1 °F /  16.7 °C 30.00 in /  1015.8 hPa SW 7.6 mph /  12.2 km/h 12.7 mph /  20.4 km/h 81 % 0.00 in /  0 mm
11:41 68.6 °F /  20.3 °C 61.8 °F /  16.6 °C 29.99 in /  1015.5 hPa SSW 9.7 mph /  15.6 km/h 15.0 mph /  24.1 km/h 79 % 0.00 in /  0 mm
11:46 68.9 °F /  20.5 °C 62.1 °F /  16.7 °C 29.99 in /  1015.5 hPa SSW 5.7 mph /  9.2 km/h 10.0 mph /  16.1 km/h 79 % 0.00 in /  0 mm
11:51 69.1 °F /  20.6 °C 62.3 °F /  16.8 °C 29.99 in /  1015.5 hPa WSW 5.9 mph /  9.5 km/h 12.7 mph /  20.4 km/h 79 % 0.00 in /  0 mm
11:56 69.3 °F /  20.7 °C 62.1 °F /  16.7 °C 29.99 in /  1015.5 hPa SW 7.2 mph /  11.6 km/h 15.0 mph /  24.1 km/h 78 % 0.00 in /  0 mm
12:01 69.5 °F /  20.8 °C 62.3 °F /  16.8 °C 29.98 in /  1015.1 hPa SW 6.4 mph /  10.3 km/h 11.5 mph /  18.5 km/h 78 % 0.00 in /  0 mm
12:06 69.8 °F /  21 °C 62.3 °F /  16.8 °C 29.98 in /  1015.1 hPa SSW 7.8 mph /  12.6 km/h 15.0 mph /  24.1 km/h 77 % 0.00 in /  0 mm
12:12 70.0 °F /  21.1 °C 62.5 °F /  16.9 °C 29.98 in /  1015.1 hPa South 5.8 mph /  9.3 km/h 8.1 mph /  13 km/h 77 % 0.00 in /  0 mm
12:17 70.3 °F /  21.3 °C 62.7 °F /  17.1 °C 29.97 in /  1014.8 hPa SSW 4.0 mph /  6.4 km/h 10.4 mph /  16.7 km/h 77 % 0.00 in /  0 mm
12:22 70.8 °F /  21.6 °C 62.9 °F /  17.2 °C 29.97 in /  1014.8 hPa SW 5.6 mph /  9 km/h 10.4 mph /  16.7 km/h 76 % 0.00 in /  0 mm
12:27 71.3 °F /  21.8 °C 62.6 °F /  17 °C 29.97 in /  1014.8 hPa SSW 9.2 mph /  14.8 km/h 13.8 mph /  22.2 km/h 74 % 0.00 in /  0 mm
12:32 71.6 °F /  22 °C 62.9 °F /  17.2 °C 29.97 in /  1014.8 hPa SSW 7.7 mph /  12.4 km/h 11.5 mph /  18.5 km/h 74 % 0.00 in /  0 mm
12:37 71.9 °F /  22.2 °C 63.2 °F /  17.3 °C 29.96 in /  1014.4 hPa SSW 4.3 mph /  6.9 km/h 7.0 mph /  11.3 km/h 74 % 0.00 in /  0 mm
12:42 72.3 °F /  22.4 °C 63.2 °F /  17.3 °C 29.96 in /  1014.4 hPa SW 6.3 mph /  10.1 km/h 11.5 mph /  18.5 km/h 73 % 0.00 in /  0 mm
12:47 72.7 °F /  22.6 °C 62.8 °F /  17.1 °C 29.95 in /  1014.1 hPa SSW 6.8 mph /  10.9 km/h 11.5 mph /  18.5 km/h 71 % 0.00 in /  0 mm
12:52 73.2 °F /  22.9 °C 63.6 °F /  17.6 °C 29.95 in /  1014.1 hPa SSW 5.3 mph /  8.5 km/h 10.0 mph /  16.1 km/h 72 % 0.00 in /  0 mm
12:57 73.5 °F /  23.1 °C 62.7 °F /  17.1 °C 29.95 in /  1014.1 hPa SW 7.5 mph /  12.1 km/h 11.5 mph /  18.5 km/h 69 % 0.00 in /  0 mm
13:02 73.9 °F /  23.3 °C 62.7 °F /  17.1 °C 29.96 in /  1014.4 hPa WSW 9.9 mph /  15.9 km/h 17.3 mph /  27.8 km/h 68 % 0.00 in /  0 mm
13:07 73.9 °F /  23.3 °C 62.7 °F /  17.1 °C 29.96 in /  1014.4 hPa SW 9.7 mph /  15.6 km/h 18.4 mph /  29.6 km/h 68 % 0.00 in /  0 mm
13:12 74.0 °F /  23.3 °C 62.8 °F /  17.1 °C 29.96 in /  1014.4 hPa SSW 6.9 mph /  11.1 km/h 10.4 mph /  16.7 km/h 68 % 0.00 in /  0 mm
13:17 74.0 °F /  23.3 °C 62.8 °F /  17.1 °C 29.95 in /  1014.1 hPa SW 9.6 mph /  15.4 km/h 14.0 mph /  22.5 km/h 68 % 0.00 in /  0 mm
13:22 74.0 °F /  23.3 °C 62.8 °F /  17.1 °C 29.95 in /  1014.1 hPa SW 6.1 mph /  9.8 km/h 12.0 mph /  19.3 km/h 68 % 0.00 in /  0 mm
13:27 74.2 °F /  23.4 °C 63.0 °F /  17.2 °C 29.95 in /  1014.1 hPa West 7.3 mph /  11.7 km/h 13.8 mph /  22.2 km/h 68 % 0.00 in /  0 mm
13:32 74.4 °F /  23.6 °C 62.7 °F /  17.1 °C 29.95 in /  1014.1 hPa SSW 8.0 mph /  12.9 km/h 11.5 mph /  18.5 km/h 67 % 0.00 in /  0 mm
13:37 74.4 °F /  23.6 °C 62.7 °F /  17.1 °C 29.95 in /  1014.1 hPa SW 11.5 mph /  18.5 km/h 15.0 mph /  24.1 km/h 67 % 0.00 in /  0 mm
13:42 74.2 °F /  23.4 °C 62.5 °F /  16.9 °C 29.95 in /  1014.1 hPa SW 8.2 mph /  13.2 km/h 17.3 mph /  27.8 km/h 67 % 0.00 in /  0 mm
13:47 74.3 °F /  23.5 °C 62.6 °F /  17 °C 29.94 in /  1013.8 hPa SSW 4.0 mph /  6.4 km/h 13.8 mph /  22.2 km/h 67 % 0.00 in /  0 mm
13:52 74.5 °F /  23.6 °C 62.8 °F /  17.1 °C 29.94 in /  1013.8 hPa SSW 4.1 mph /  6.6 km/h 6.9 mph /  11.1 km/h 67 % 0.00 in /  0 mm
13:57 74.6 °F /  23.7 °C 62.5 °F /  16.9 °C 29.93 in /  1013.4 hPa South 6.9 mph /  11.1 km/h 15.0 mph /  24.1 km/h 66 % 0.00 in /  0 mm
14:03 74.7 °F /  23.7 °C 63.0 °F /  17.2 °C 29.93 in /  1013.4 hPa WSW 3.9 mph /  6.3 km/h 9.2 mph /  14.8 km/h 67 % 0.00 in /  0 mm
14:08 74.9 °F /  23.8 °C 62.8 °F /  17.1 °C 29.94 in /  1013.8 hPa SSW 3.1 mph /  5 km/h 11.5 mph /  18.5 km/h 66 % 0.00 in /  0 mm
14:13 75.2 °F /  24 °C 63.1 °F /  17.3 °C 29.93 in /  1013.4 hPa SSW 6.7 mph /  10.8 km/h 9.2 mph /  14.8 km/h 66 % 0.00 in /  0 mm
14:18 75.4 °F /  24.1 °C 63.2 °F /  17.3 °C 29.93 in /  1013.4 hPa South 5.5 mph /  8.9 km/h 9.2 mph /  14.8 km/h 66 % 0.00 in /  0 mm
14:23 75.6 °F /  24.2 °C 63.4 °F /  17.4 °C 29.93 in /  1013.4 hPa South 3.8 mph /  6.1 km/h 8.1 mph /  13 km/h 66 % 0.00 in /  0 mm
14:28 75.7 °F /  24.3 °C 63.1 °F /  17.3 °C 29.93 in /  1013.4 hPa SW 6.6 mph /  10.6 km/h 13.0 mph /  20.9 km/h 65 % 0.00 in /  0 mm
14:33 75.8 °F /  24.3 °C 63.2 °F /  17.3 °C 29.93 in /  1013.4 hPa South 4.0 mph /  6.4 km/h 8.1 mph /  13 km/h 65 % 0.00 in /  0 mm
14:38 76.0 °F /  24.4 °C 63.4 °F /  17.4 °C 29.94 in /  1013.8 hPa West 6.1 mph /  9.8 km/h 15.0 mph /  24.1 km/h 65 % 0.00 in /  0 mm
14:43 76.0 °F /  24.4 °C 62.9 °F /  17.2 °C 29.93 in /  1013.4 hPa West 3.8 mph /  6.1 km/h 7.0 mph /  11.3 km/h 64 % 0.00 in /  0 mm
14:48 76.0 °F /  24.4 °C 62.9 °F /  17.2 °C 29.93 in /  1013.4 hPa WSW 5.8 mph /  9.3 km/h 9.2 mph /  14.8 km/h 64 % 0.00 in /  0 mm
14:53 75.8 °F /  24.3 °C 62.8 °F /  17.1 °C 29.93 in /  1013.4 hPa South 7.9 mph /  12.7 km/h 10.4 mph /  16.7 km/h 64 % 0.00 in /  0 mm
14:58 75.7 °F /  24.3 °C 63.1 °F /  17.3 °C 29.93 in /  1013.4 hPa South 6.4 mph /  10.3 km/h 12.7 mph /  20.4 km/h 65 % 0.00 in /  0 mm
15:03 75.5 °F /  24.2 °C 62.9 °F /  17.2 °C 29.93 in /  1013.4 hPa SSW 4.3 mph /  6.9 km/h 8.1 mph /  13 km/h 65 % 0.00 in /  0 mm
15:08 75.5 °F /  24.2 °C 62.9 °F /  17.2 °C 29.93 in /  1013.4 hPa SSW 4.1 mph /  6.6 km/h 7.0 mph /  11.3 km/h 65 % 0.00 in /  0 mm
15:13 75.4 °F /  24.1 °C 62.8 °F /  17.1 °C 29.93 in /  1013.4 hPa South 5.4 mph /  8.7 km/h 9.2 mph /  14.8 km/h 65 % 0.00 in /  0 mm
15:18 75.3 °F /  24.1 °C 62.7 °F /  17.1 °C 29.93 in /  1013.4 hPa South 8.3 mph /  13.4 km/h 12.7 mph /  20.4 km/h 65 % 0.00 in /  0 mm
15:24 75.3 °F /  24.1 °C 63.2 °F /  17.3 °C 29.93 in /  1013.4 hPa SW 7.4 mph /  11.9 km/h 10.0 mph /  16.1 km/h 66 % 0.00 in /  0 mm
15:29 75.2 °F /  24 °C 62.6 °F /  17 °C 29.93 in /  1013.4 hPa SSW 5.1 mph /  8.2 km/h 10.4 mph /  16.7 km/h 65 % 0.00 in /  0 mm
15:34 75.2 °F /  24 °C 62.6 °F /  17 °C 29.93 in /  1013.4 hPa SW 4.9 mph /  7.9 km/h 8.1 mph /  13 km/h 65 % 0.00 in /  0 mm
15:39 75.1 °F /  23.9 °C 62.5 °F /  16.9 °C 29.93 in /  1013.4 hPa SW 6.5 mph /  10.5 km/h 11.5 mph /  18.5 km/h 65 % 0.00 in /  0 mm
15:44 75.0 °F /  23.9 °C 62.4 °F /  16.9 °C 29.93 in /  1013.4 hPa SSW 6.8 mph /  10.9 km/h 11.5 mph /  18.5 km/h 65 % 0.00 in /  0 mm
15:49 74.8 °F /  23.8 °C 62.2 °F /  16.8 °C 29.93 in /  1013.4 hPa SW 4.4 mph /  7.1 km/h 8.1 mph /  13 km/h 65 % 0.00 in /  0 mm
15:54 74.8 °F /  23.8 °C 62.7 °F /  17.1 °C 29.93 in /  1013.4 hPa SW 4.9 mph /  7.9 km/h 6.9 mph /  11.1 km/h 66 % 0.00 in /  0 mm
15:59 74.6 °F /  23.7 °C 62.1 °F /  16.7 °C 29.93 in /  1013.4 hPa South 8.6 mph /  13.8 km/h 12.7 mph /  20.4 km/h 65 % 0.00 in /  0 mm
16:04 74.4 °F /  23.6 °C 62.3 °F /  16.8 °C 29.93 in /  1013.4 hPa South 6.2 mph /  10 km/h 12.7 mph /  20.4 km/h 66 % 0.00 in /  0 mm
16:09 74.3 °F /  23.5 °C 62.2 °F /  16.8 °C 29.93 in /  1013.4 hPa SSW 4.6 mph /  7.4 km/h 5.8 mph /  9.3 km/h 66 % 0.00 in /  0 mm
16:14 74.2 °F /  23.4 °C 62.1 °F /  16.7 °C 29.94 in /  1013.8 hPa South 5.1 mph /  8.2 km/h 6.9 mph /  11.1 km/h 66 % 0.00 in /  0 mm
16:19 74.0 °F /  23.3 °C 61.9 °F /  16.6 °C 29.94 in /  1013.8 hPa South 3.5 mph /  5.6 km/h 5.0 mph /  8 km/h 66 % 0.00 in /  0 mm
16:25 73.9 °F /  23.3 °C 61.8 °F /  16.6 °C 29.94 in /  1013.8 hPa South 6.3 mph /  10.1 km/h 8.1 mph /  13 km/h 66 % 0.00 in /  0 mm
16:30 73.7 °F /  23.2 °C 61.6 °F /  16.4 °C 29.93 in /  1013.4 hPa SW 3.7 mph /  6 km/h 9.2 mph /  14.8 km/h 66 % 0.00 in /  0 mm
16:35 73.6 °F /  23.1 °C 61.5 °F /  16.4 °C 29.93 in /  1013.4 hPa SSW 7.7 mph /  12.4 km/h 10.4 mph /  16.7 km/h 66 % 0.00 in /  0 mm
16:40 73.4 °F /  23 °C 61.8 °F /  16.6 °C 29.93 in /  1013.4 hPa SSW 3.6 mph /  5.8 km/h 10.4 mph /  16.7 km/h 67 % 0.00 in /  0 mm
16:45 73.1 °F /  22.8 °C 61.5 °F /  16.4 °C 29.93 in /  1013.4 hPa South 3.4 mph /  5.5 km/h 9.2 mph /  14.8 km/h 67 % 0.00 in /  0 mm
16:50 72.9 °F /  22.7 °C 61.7 °F /  16.5 °C 29.93 in /  1013.4 hPa SW 3.5 mph /  5.6 km/h 6.9 mph /  11.1 km/h 68 % 0.00 in /  0 mm
16:55 72.7 °F /  22.6 °C 61.5 °F /  16.4 °C 29.94 in /  1013.8 hPa SSW 5.0 mph /  8 km/h 9.2 mph /  14.8 km/h 68 % 0.00 in /  0 mm
17:00 72.5 °F /  22.5 °C 61.3 °F /  16.3 °C 29.94 in /  1013.8 hPa SSW 6.8 mph /  10.9 km/h 10.4 mph /  16.7 km/h 68 % 0.00 in /  0 mm
17:05 72.2 °F /  22.3 °C 61.5 °F /  16.4 °C 29.94 in /  1013.8 hPa SW 4.0 mph /  6.4 km/h 8.1 mph /  13 km/h 69 % 0.00 in /  0 mm
17:10 72.0 °F /  22.2 °C 61.3 °F /  16.3 °C 29.94 in /  1013.8 hPa SSW 4.0 mph /  6.4 km/h 11.5 mph /  18.5 km/h 69 % 0.00 in /  0 mm
17:15 71.7 °F /  22.1 °C 61.0 °F /  16.1 °C 29.94 in /  1013.8 hPa South 6.1 mph /  9.8 km/h 9.2 mph /  14.8 km/h 69 % 0.00 in /  0 mm
17:20 71.4 °F /  21.9 °C 61.1 °F /  16.2 °C 29.95 in /  1014.1 hPa SW 8.3 mph /  13.4 km/h 10.0 mph /  16.1 km/h 70 % 0.00 in /  0 mm
17:25 71.1 °F /  21.7 °C 60.8 °F /  16 °C 29.95 in /  1014.1 hPa SW 4.1 mph /  6.6 km/h 8.1 mph /  13 km/h 70 % 0.00 in /  0 mm
17:30 70.9 °F /  21.6 °C 60.6 °F /  15.9 °C 29.95 in /  1014.1 hPa SSW 4.6 mph /  7.4 km/h 10.4 mph /  16.7 km/h 70 % 0.00 in /  0 mm
17:35 70.6 °F /  21.4 °C 60.7 °F /  15.9 °C 29.95 in /  1014.1 hPa SW 4.7 mph /  7.6 km/h 8.1 mph /  13 km/h 71 % 0.00 in /  0 mm
17:40 70.3 °F /  21.3 °C 60.4 °F /  15.8 °C 29.96 in /  1014.4 hPa SSW 5.6 mph /  9 km/h 11.5 mph /  18.5 km/h 71 % 0.00 in /  0 mm
17:45 70.0 °F /  21.1 °C 60.2 °F /  15.7 °C 29.97 in /  1014.8 hPa SW 5.5 mph /  8.9 km/h 6.9 mph /  11.1 km/h 71 % 0.00 in /  0 mm
17:51 69.7 °F /  20.9 °C 60.3 °F /  15.7 °C 29.97 in /  1014.8 hPa SSW 6.0 mph /  9.7 km/h 10.0 mph /  16.1 km/h 72 % 0.00 in /  0 mm
17:56 69.5 °F /  20.8 °C 60.1 °F /  15.6 °C 29.97 in /  1014.8 hPa SSW 3.0 mph /  4.8 km/h 9.0 mph /  14.5 km/h 72 % 0.00 in /  0 mm
18:01 69.2 °F /  20.7 °C 59.8 °F /  15.4 °C 29.97 in /  1014.8 hPa South 4.3 mph /  6.9 km/h 7.0 mph /  11.3 km/h 72 % 0.00 in /  0 mm
18:06 68.9 °F /  20.5 °C 59.5 °F /  15.3 °C 29.96 in /  1014.4 hPa South 3.9 mph /  6.3 km/h 5.8 mph /  9.3 km/h 72 % 0.00 in /  0 mm
18:11 68.6 °F /  20.3 °C 59.6 °F /  15.3 °C 29.97 in /  1014.8 hPa SSW 3.1 mph /  5 km/h 7.0 mph /  11.3 km/h 73 % 0.00 in /  0 mm
18:16 68.3 °F /  20.2 °C 59.3 °F /  15.2 °C 29.97 in /  1014.8 hPa South 4.6 mph /  7.4 km/h 6.9 mph /  11.1 km/h 73 % 0.00 in /  0 mm
18:21 68.0 °F /  20 °C 59.0 °F /  15 °C 29.97 in /  1014.8 hPa South 2.7 mph /  4.3 km/h 8.1 mph /  13 km/h 73 % 0.00 in /  0 mm
18:26 67.7 °F /  19.8 °C 58.7 °F /  14.8 °C 29.98 in /  1015.1 hPa SSE 4.1 mph /  6.6 km/h 6.9 mph /  11.1 km/h 73 % 0.00 in /  0 mm
18:31 67.5 °F /  19.7 °C 58.9 °F /  14.9 °C 29.98 in /  1015.1 hPa SSW 2.9 mph /  4.7 km/h 5.0 mph /  8 km/h 74 % 0.00 in /  0 mm
18:36 67.2 °F /  19.6 °C 58.6 °F /  14.8 °C 29.98 in /  1015.1 hPa SSW 2.5 mph /  4 km/h 4.0 mph /  6.4 km/h 74 % 0.00 in /  0 mm
18:46 66.6 °F /  19.2 °C 58.4 °F /  14.7 °C 29.99 in /  1015.5 hPa WSW 4.0 mph /  6.4 km/h 11.5 mph /  18.5 km/h 75 % 0.00 in /  0 mm
18:51 66.4 °F /  19.1 °C 58.6 °F /  14.8 °C 29.99 in /  1015.5 hPa SW 3.8 mph /  6.1 km/h 6.9 mph /  11.1 km/h 76 % 0.00 in /  0 mm
18:56 66.3 °F /  19.1 °C 58.5 °F /  14.7 °C 29.99 in /  1015.5 hPa SW 4.4 mph /  7.1 km/h 5.0 mph /  8 km/h 76 % 0.00 in /  0 mm
19:01 66.1 °F /  18.9 °C 58.7 °F /  14.8 °C 29.99 in /  1015.5 hPa SSW 3.5 mph /  5.6 km/h 6.0 mph /  9.7 km/h 77 % 0.00 in /  0 mm
19:06 66.0 °F /  18.9 °C 58.9 °F /  14.9 °C 29.99 in /  1015.5 hPa SW 3.3 mph /  5.3 km/h 6.9 mph /  11.1 km/h 78 % 0.00 in /  0 mm
19:11 65.9 °F /  18.8 °C 58.8 °F /  14.9 °C 29.98 in /  1015.1 hPa SW 5.6 mph /  9 km/h 8.1 mph /  13 km/h 78 % 0.00 in /  0 mm
19:16 65.9 °F /  18.8 °C 59.2 °F /  15.1 °C 29.98 in /  1015.1 hPa SSW 3.5 mph /  5.6 km/h 6.9 mph /  11.1 km/h 79 % 0.00 in /  0 mm
19:21 65.9 °F /  18.8 °C 59.2 °F /  15.1 °C 29.99 in /  1015.5 hPa SSW 3.6 mph /  5.8 km/h 4.6 mph /  7.4 km/h 79 % 0.00 in /  0 mm
19:27 65.9 °F /  18.8 °C 59.2 °F /  15.1 °C 29.99 in /  1015.5 hPa SSW 1.6 mph /  2.6 km/h 7.0 mph /  11.3 km/h 79 % 0.00 in /  0 mm
19:32 65.9 °F /  18.8 °C 59.2 °F /  15.1 °C 30.00 in /  1015.8 hPa WSW 3.2 mph /  5.1 km/h 5.8 mph /  9.3 km/h 79 % 0.00 in /  0 mm
19:37 65.9 °F /  18.8 °C 59.2 °F /  15.1 °C 30.00 in /  1015.8 hPa SW 2.1 mph /  3.4 km/h 4.0 mph /  6.4 km/h 79 % 0.00 in /  0 mm
19:42 65.8 °F /  18.8 °C 59.1 °F /  15.1 °C 30.00 in /  1015.8 hPa SW 1.5 mph /  2.4 km/h 4.6 mph /  7.4 km/h 79 % 0.00 in /  0 mm
19:47 65.7 °F /  18.7 °C 59.0 °F /  15 °C 30.00 in /  1015.8 hPa WSW 4.3 mph /  6.9 km/h 9.2 mph /  14.8 km/h 79 % 0.00 in /  0 mm
19:52 65.7 °F /  18.7 °C 59.0 °F /  15 °C 30.00 in /  1015.8 hPa SSW 4.0 mph /  6.4 km/h 6.9 mph /  11.1 km/h 79 % 0.00 in /  0 mm
19:57 65.7 °F /  18.7 °C 59.0 °F /  15 °C 30.00 in /  1015.8 hPa WSW 4.9 mph /  7.9 km/h 8.1 mph /  13 km/h 79 % 0.00 in /  0 mm
20:02 65.7 °F /  18.7 °C 59.0 °F /  15 °C 30.02 in /  1016.5 hPa WNW 3.3 mph /  5.3 km/h 8.0 mph /  12.9 km/h 79 % 0.00 in /  0 mm
20:07 65.7 °F /  18.7 °C 59.0 °F /  15 °C 30.03 in /  1016.8 hPa West 3.4 mph /  5.5 km/h 8.1 mph /  13 km/h 79 % 0.00 in /  0 mm
20:12 65.5 °F /  18.6 °C 58.8 °F /  14.9 °C 30.02 in /  1016.5 hPa South 0.6 mph /  1 km/h 2.3 mph /  3.7 km/h 79 % 0.00 in /  0 mm
20:17 65.5 °F /  18.6 °C 59.2 °F /  15.1 °C 30.03 in /  1016.8 hPa SW 4.4 mph /  7.1 km/h 6.9 mph /  11.1 km/h 80 % 0.00 in /  0 mm
20:22 65.4 °F /  18.6 °C 59.4 °F /  15.2 °C 30.04 in /  1017.2 hPa SW 2.1 mph /  3.4 km/h 3.5 mph /  5.6 km/h 81 % 0.00 in /  0 mm
20:27 64.9 °F /  18.3 °C 57.2 °F /  14 °C 30.06 in /  1017.8 hPa NNW 6.3 mph /  10.1 km/h 13.0 mph /  20.9 km/h 76 % 0.00 in /  0 mm
20:32 63.9 °F /  17.7 °C 55.8 °F /  13.2 °C 30.06 in /  1017.8 hPa NW 3.4 mph /  5.5 km/h 4.6 mph /  7.4 km/h 75 % 0.00 in /  0 mm
20:37 63.2 °F /  17.3 °C 56.2 °F /  13.4 °C 30.08 in /  1018.5 hPa WNW 2.2 mph /  3.5 km/h 4.6 mph /  7.4 km/h 78 % 0.00 in /  0 mm
20:42 62.6 °F /  17 °C 56.0 °F /  13.3 °C 30.08 in /  1018.5 hPa NNW 3.0 mph /  4.8 km/h 4.6 mph /  7.4 km/h 79 % 0.00 in /  0 mm
20:47 61.8 °F /  16.6 °C 55.2 °F /  12.9 °C 30.08 in /  1018.5 hPa NNE 3.3 mph /  5.3 km/h 6.0 mph /  9.7 km/h 79 % 0.00 in /  0 mm
20:52 60.9 °F /  16.1 °C 54.0 °F /  12.2 °C 30.09 in /  1018.8 hPa North 2.9 mph /  4.7 km/h 6.0 mph /  9.7 km/h 78 % 0.00 in /  0 mm
20:57 59.8 °F /  15.4 °C 53.3 °F /  11.8 °C 30.09 in /  1018.8 hPa North 6.8 mph /  10.9 km/h 13.8 mph /  22.2 km/h 79 % 0.00 in /  0 mm
21:02 58.8 °F /  14.9 °C 52.6 °F /  11.4 °C 30.09 in /  1018.8 hPa North 10.0 mph /  16.1 km/h 15.0 mph /  24.1 km/h 80 % 0.00 in /  0 mm
21:07 58.0 °F /  14.4 °C 52.2 °F /  11.2 °C 30.09 in /  1018.8 hPa North 8.5 mph /  13.7 km/h 14.0 mph /  22.5 km/h 81 % 0.00 in /  0 mm
21:13 57.5 °F /  14.2 °C 52.4 °F /  11.3 °C 30.09 in /  1018.8 hPa North 9.2 mph /  14.8 km/h 12.7 mph /  20.4 km/h 83 % 0.00 in /  0 mm
21:18 57.2 °F /  14 °C 52.1 °F /  11.2 °C 30.10 in /  1019.2 hPa North 7.4 mph /  11.9 km/h 11.5 mph /  18.5 km/h 83 % 0.00 in /  0 mm
21:23 56.7 °F /  13.7 °C 51.6 °F /  10.9 °C 30.10 in /  1019.2 hPa NNE 9.5 mph /  15.3 km/h 12.0 mph /  19.3 km/h 83 % 0.00 in /  0 mm
21:28 56.1 °F /  13.4 °C 51.3 °F /  10.7 °C 30.11 in /  1019.5 hPa NNE 8.8 mph /  14.2 km/h 13.0 mph /  20.9 km/h 84 % 0.00 in /  0 mm
21:33 55.7 °F /  13.2 °C 51.3 °F /  10.7 °C 30.12 in /  1019.9 hPa North 7.5 mph /  12.1 km/h 16.1 mph /  25.9 km/h 85 % 0.00 in /  0 mm
21:38 55.2 °F /  12.9 °C 51.1 °F /  10.6 °C 30.11 in /  1019.5 hPa North 10.6 mph /  17.1 km/h 16.1 mph /  25.9 km/h 86 % 0.00 in /  0 mm
21:43 54.8 °F /  12.7 °C 51.3 °F /  10.7 °C 30.12 in /  1019.9 hPa North 7.7 mph /  12.4 km/h 11.5 mph /  18.5 km/h 88 % 0.01 in /  0.25 mm
21:48 54.6 °F /  12.6 °C 51.4 °F /  10.8 °C 30.12 in /  1019.9 hPa NNE 7.8 mph /  12.6 km/h 11.5 mph /  18.5 km/h 89 % 0.01 in /  0.25 mm
21:53 54.4 °F /  12.4 °C 51.2 °F /  10.7 °C 30.12 in /  1019.9 hPa NNE 8.9 mph /  14.3 km/h 12.7 mph /  20.4 km/h 89 % 0.02 in /  0.51 mm
21:58 53.9 °F /  12.2 °C 50.4 °F /  10.2 °C 30.12 in /  1019.9 hPa NNE 7.3 mph /  11.7 km/h 10.4 mph /  16.7 km/h 88 % 0.02 in /  0.51 mm
22:03 53.5 °F /  11.9 °C 50.0 °F /  10 °C 30.11 in /  1019.5 hPa NNE 7.0 mph /  11.3 km/h 10.4 mph /  16.7 km/h 88 % 0.03 in /  0.76 mm
22:08 53.2 °F /  11.8 °C 49.7 °F /  9.8 °C 30.11 in /  1019.5 hPa NNE 7.7 mph /  12.4 km/h 10.4 mph /  16.7 km/h 88 % 0.03 in /  0.76 mm
22:13 52.9 °F /  11.6 °C 49.4 °F /  9.7 °C 30.12 in /  1019.9 hPa North 6.8 mph /  10.9 km/h 9.2 mph /  14.8 km/h 88 % 0.03 in /  0.76 mm
22:18 52.7 °F /  11.5 °C 49.2 °F /  9.6 °C 30.12 in /  1019.9 hPa North 7.2 mph /  11.6 km/h 9.2 mph /  14.8 km/h 88 % 0.03 in /  0.76 mm
22:23 52.6 °F /  11.4 °C 49.1 °F /  9.5 °C 30.12 in /  1019.9 hPa NNE 7.3 mph /  11.7 km/h 10.4 mph /  16.7 km/h 88 % 0.03 in /  0.76 mm
22:28 52.4 °F /  11.3 °C 48.6 °F /  9.2 °C 30.13 in /  1020.2 hPa NNE 7.5 mph /  12.1 km/h 11.5 mph /  18.5 km/h 87 % 0.03 in /  0.76 mm
22:33 52.0 °F /  11.1 °C 47.9 °F /  8.8 °C 30.13 in /  1020.2 hPa North 6.1 mph /  9.8 km/h 9.2 mph /  14.8 km/h 86 % 0.03 in /  0.76 mm
22:39 51.7 °F /  10.9 °C 47.6 °F /  8.7 °C 30.13 in /  1020.2 hPa North 6.2 mph /  10 km/h 8.1 mph /  13 km/h 86 % 0.03 in /  0.76 mm
22:44 51.5 °F /  10.8 °C 47.5 °F /  8.6 °C 30.13 in /  1020.2 hPa NE 6.3 mph /  10.1 km/h 11.5 mph /  18.5 km/h 86 % 0.02 in /  0.51 mm
22:49 51.6 °F /  10.9 °C 47.9 °F /  8.8 °C 30.12 in /  1019.9 hPa NNE 8.0 mph /  12.9 km/h 11.5 mph /  18.5 km/h 87 % 0.02 in /  0.51 mm
22:54 51.8 °F /  11 °C 48.1 °F /  8.9 °C 30.12 in /  1019.9 hPa NNE 6.6 mph /  10.6 km/h 10.4 mph /  16.7 km/h 87 % 0.01 in /  0.25 mm
22:59 51.9 °F /  11.1 °C 47.5 °F /  8.6 °C 30.12 in /  1019.9 hPa North 8.4 mph /  13.5 km/h 11.5 mph /  18.5 km/h 85 % 0.01 in /  0.25 mm
23:04 52.0 °F /  11.1 °C 47.0 °F /  8.3 °C 30.13 in /  1020.2 hPa North 6.9 mph /  11.1 km/h 10.4 mph /  16.7 km/h 83 % 0.00 in /  0 mm
23:09 52.0 °F /  11.1 °C 46.3 °F /  7.9 °C 30.12 in /  1019.9 hPa NE 9.4 mph /  15.1 km/h 14.0 mph /  22.5 km/h 81 % 0.00 in /  0 mm
23:14 52.0 °F /  11.1 °C 46.0 °F /  7.8 °C 30.13 in /  1020.2 hPa NE 6.7 mph /  10.8 km/h 11.0 mph /  17.7 km/h 80 % 0.00 in /  0 mm
23:19 52.1 °F /  11.2 °C 45.8 °F /  7.7 °C 30.14 in /  1020.5 hPa North 6.1 mph /  9.8 km/h 10.4 mph /  16.7 km/h 79 % 0.00 in /  0 mm
23:24 52.3 °F /  11.3 °C 45.6 °F /  7.6 °C 30.15 in /  1020.9 hPa NNE 3.8 mph /  6.1 km/h 10.0 mph /  16.1 km/h 78 % 0.00 in /  0 mm
23:29 52.3 °F /  11.3 °C 45.3 °F /  7.4 °C 30.15 in /  1020.9 hPa NNW 5.1 mph /  8.2 km/h 6.9 mph /  11.1 km/h 77 % 0.00 in /  0 mm
23:34 52.2 °F /  11.2 °C 45.2 °F /  7.3 °C 30.15 in /  1020.9 hPa North 2.9 mph /  4.7 km/h 4.0 mph /  6.4 km/h 77 % 0.00 in /  0 mm
23:39 52.2 °F /  11.2 °C 44.9 °F /  7.2 °C 30.14 in /  1020.5 hPa North 4.1 mph /  6.6 km/h 8.1 mph /  13 km/h 76 % 0.00 in /  0 mm
23:44 52.1 °F /  11.2 °C 44.4 °F /  6.9 °C 30.15 in /  1020.9 hPa North 4.7 mph /  7.6 km/h 9.2 mph /  14.8 km/h 75 % 0.00 in /  0 mm
23:49 52.0 °F /  11.1 °C 44.0 °F /  6.7 °C 30.15 in /  1020.9 hPa North 5.7 mph /  9.2 km/h 10.4 mph /  16.7 km/h 74 % 0.00 in /  0 mm
23:54 52.1 °F /  11.2 °C 43.7 °F /  6.5 °C 30.15 in /  1020.9 hPa North 4.2 mph /  6.8 km/h 6.9 mph /  11.1 km/h 73 % 0.00 in /  0 mm
23:59 52.2 °F /  11.2 °C 43.4 °F /  6.3 °C 30.15 in /  1020.9 hPa North 5.9 mph /  9.5 km/h 10.4 mph /  16.7 km/h 72 % 0.00 in /  0 mm
Crab Meadow Weather
Compliments of Weather Underground - 3 mb

Script developed by  Jim McMurry - jmcmurry@mwt.net Adapted for the template by  Wim van der Kuil - Leuven-Template.eu

Recycling: We use over 80,000,000,000 aluminum soda cans every year.